sensor_id;sensor_type;location;lat;lon;timestamp;pressure;altitude;pressure_sealevel;temperature;humidity
69855;BME280;57146;48.140;16.304;2023-04-27T00:01:18;99645.28;;;6.69;63.34
69855;BME280;57146;48.140;16.304;2023-04-27T00:03:45;99645.78;;;6.71;63.23
69855;BME280;57146;48.140;16.304;2023-04-27T00:06:12;99651.28;;;6.75;63.67
69855;BME280;57146;48.140;16.304;2023-04-27T00:08:39;99641.06;;;6.78;63.24
69855;BME280;57146;48.140;16.304;2023-04-27T00:11:06;99646.31;;;6.83;63.22
69855;BME280;57146;48.140;16.304;2023-04-27T00:13:32;99638.47;;;6.83;63.44
69855;BME280;57146;48.140;16.304;2023-04-27T00:16:00;99640.00;;;6.79;64.38
69855;BME280;57146;48.140;16.304;2023-04-27T00:18:27;99637.94;;;6.76;64.01
69855;BME280;57146;48.140;16.304;2023-04-27T00:20:54;99634.00;;;6.79;64.00
69855;BME280;57146;48.140;16.304;2023-04-27T00:23:20;99636.34;;;6.75;64.91
69855;BME280;57146;48.140;16.304;2023-04-27T00:25:47;99636.38;;;6.70;64.48
69855;BME280;57146;48.140;16.304;2023-04-27T00:28:14;99637.44;;;6.69;64.25
69855;BME280;57146;48.140;16.304;2023-04-27T00:30:41;99638.47;;;6.68;65.31
69855;BME280;57146;48.140;16.304;2023-04-27T00:33:08;99642.13;;;6.67;65.58
69855;BME280;57146;48.140;16.304;2023-04-27T00:35:35;99636.66;;;6.63;66.14
69855;BME280;57146;48.140;16.304;2023-04-27T00:38:02;99633.50;;;6.61;65.59
69855;BME280;57146;48.140;16.304;2023-04-27T00:40:29;99630.63;;;6.58;65.85
69855;BME280;57146;48.140;16.304;2023-04-27T00:42:56;99629.84;;;6.57;65.38
69855;BME280;57146;48.140;16.304;2023-04-27T00:45:24;99623.84;;;6.57;65.13
69855;BME280;57146;48.140;16.304;2023-04-27T00:47:51;99626.47;;;6.57;65.01
69855;BME280;57146;48.140;16.304;2023-04-27T00:50:27;99624.38;;;6.54;65.45
69855;BME280;57146;48.140;16.304;2023-04-27T00:52:55;99622.00;;;6.57;65.37
69855;BME280;57146;48.140;16.304;2023-04-27T00:55:23;99625.69;;;6.56;65.94
69855;BME280;57146;48.140;16.304;2023-04-27T00:57:50;99629.09;;;6.52;66.31
69855;BME280;57146;48.140;16.304;2023-04-27T01:00:17;99626.72;;;6.50;66.36
69855;BME280;57146;48.140;16.304;2023-04-27T01:02:44;99627.78;;;6.49;66.36
69855;BME280;57146;48.140;16.304;2023-04-27T01:05:12;99625.94;;;6.50;64.66
69855;BME280;57146;48.140;16.304;2023-04-27T01:07:39;99621.22;;;6.57;64.02
69855;BME280;57146;48.140;16.304;2023-04-27T01:10:07;99620.44;;;6.56;62.84
69855;BME280;57146;48.140;16.304;2023-04-27T01:12:34;99619.91;;;6.54;62.45
69855;BME280;57146;48.140;16.304;2023-04-27T01:15:04;99625.16;;;6.49;62.36
69855;BME280;57146;48.140;16.304;2023-04-27T01:17:33;99621.78;;;6.38;62.65
69855;BME280;57146;48.140;16.304;2023-04-27T01:20:03;99612.09;;;6.39;63.63
69855;BME280;57146;48.140;16.304;2023-04-27T01:22:31;99623.34;;;6.44;63.83
69855;BME280;57146;48.140;16.304;2023-04-27T01:24:57;99625.94;;;6.50;63.33
69855;BME280;57146;48.140;16.304;2023-04-27T01:27:25;99619.69;;;6.45;62.66
69855;BME280;57146;48.140;16.304;2023-04-27T01:29:52;99622.56;;;6.39;62.50
69855;BME280;57146;48.140;16.304;2023-04-27T01:32:19;99631.19;;;6.44;63.09
69855;BME280;57146;48.140;16.304;2023-04-27T01:34:45;99625.69;;;6.41;63.91
69855;BME280;57146;48.140;16.304;2023-04-27T01:37:12;99630.66;;;6.32;64.42
69855;BME280;57146;48.140;16.304;2023-04-27T01:39:39;99627.00;;;6.28;64.15
69855;BME280;57146;48.140;16.304;2023-04-27T01:42:07;99628.31;;;6.15;64.65
69855;BME280;57146;48.140;16.304;2023-04-27T01:44:33;99635.38;;;6.10;64.89
69855;BME280;57146;48.140;16.304;2023-04-27T01:47:00;99631.72;;;6.06;65.08
69855;BME280;57146;48.140;16.304;2023-04-27T01:49:27;99638.25;;;6.03;65.13
69855;BME280;57146;48.140;16.304;2023-04-27T01:51:54;99631.97;;;5.99;65.35
69855;BME280;57146;48.140;16.304;2023-04-27T01:54:21;99636.41;;;5.98;65.11
69855;BME280;57146;48.140;16.304;2023-04-27T01:56:48;99636.63;;;5.92;65.52
69855;BME280;57146;48.140;16.304;2023-04-27T01:59:16;99636.88;;;5.80;67.37
69855;BME280;57146;48.140;16.304;2023-04-27T02:01:43;99641.03;;;5.71;67.33
69855;BME280;57146;48.140;16.304;2023-04-27T02:04:10;99641.28;;;5.59;67.79
69855;BME280;57146;48.140;16.304;2023-04-27T02:06:38;99639.94;;;5.51;67.67
69855;BME280;57146;48.140;16.304;2023-04-27T02:09:05;99636.78;;;5.49;68.05
69855;BME280;57146;48.140;16.304;2023-04-27T02:11:32;99636.53;;;5.46;67.77
69855;BME280;57146;48.140;16.304;2023-04-27T02:13:59;99639.41;;;5.44;68.36
69855;BME280;57146;48.140;16.304;2023-04-27T02:16:32;99639.13;;;5.41;68.09
69855;BME280;57146;48.140;16.304;2023-04-27T02:19:00;99651.91;;;5.37;67.88
69855;BME280;57146;48.140;16.304;2023-04-27T02:21:26;99647.69;;;5.31;67.86
69855;BME280;57146;48.140;16.304;2023-04-27T02:23:54;99642.97;;;5.23;68.31
69855;BME280;57146;48.140;16.304;2023-04-27T02:26:22;99643.47;;;5.20;68.49
69855;BME280;57146;48.140;16.304;2023-04-27T02:28:49;99651.81;;;5.17;68.49
69855;BME280;57146;48.140;16.304;2023-04-27T02:31:17;99646.56;;;5.12;68.63
69855;BME280;57146;48.140;16.304;2023-04-27T02:33:44;99644.97;;;5.06;69.27
69855;BME280;57146;48.140;16.304;2023-04-27T02:36:11;99646.78;;;5.00;68.80
69855;BME280;57146;48.140;16.304;2023-04-27T02:38:38;99647.28;;;4.97;68.97
69855;BME280;57146;48.140;16.304;2023-04-27T02:41:05;99641.78;;;4.93;69.54
69855;BME280;57146;48.140;16.304;2023-04-27T02:43:32;99647.75;;;4.89;69.81
69855;BME280;57146;48.140;16.304;2023-04-27T02:46:03;99652.69;;;4.85;69.81
69855;BME280;57146;48.140;16.304;2023-04-27T02:48:30;99645.63;;;4.80;69.69
69855;BME280;57146;48.140;16.304;2023-04-27T02:50:57;99651.09;;;4.79;69.68
69855;BME280;57146;48.140;16.304;2023-04-27T02:53:24;99652.63;;;4.75;69.91
69855;BME280;57146;48.140;16.304;2023-04-27T02:55:51;99651.06;;;4.74;69.65
69855;BME280;57146;48.140;16.304;2023-04-27T02:58:18;99644.25;;;4.73;69.09
69855;BME280;57146;48.140;16.304;2023-04-27T03:00:45;99646.63;;;4.74;69.63
69855;BME280;57146;48.140;16.304;2023-04-27T03:03:14;99656.28;;;4.74;69.33
69855;BME280;57146;48.140;16.304;2023-04-27T03:05:41;99653.47;;;4.80;68.59
69855;BME280;57146;48.140;16.304;2023-04-27T03:08:08;99651.34;;;4.77;69.28
69855;BME280;57146;48.140;16.304;2023-04-27T03:10:35;99658.38;;;4.77;68.92
69855;BME280;57146;48.140;16.304;2023-04-27T03:13:02;99658.88;;;4.74;69.65
69855;BME280;57146;48.140;16.304;2023-04-27T03:15:29;99662.00;;;4.71;70.08
69855;BME280;57146;48.140;16.304;2023-04-27T03:17:56;99659.59;;;4.64;70.91
69855;BME280;57146;48.140;16.304;2023-04-27T03:20:22;99657.47;;;4.56;72.03
69855;BME280;57146;48.140;16.304;2023-04-27T03:22:52;99656.91;;;4.54;71.95
69855;BME280;57146;48.140;16.304;2023-04-27T03:25:19;99659.28;;;4.55;71.21
69855;BME280;57146;48.140;16.304;2023-04-27T03:27:46;99660.59;;;4.58;71.19
69855;BME280;57146;48.140;16.304;2023-04-27T03:30:13;99662.63;;;4.51;71.77
69855;BME280;57146;48.140;16.304;2023-04-27T03:32:40;99663.94;;;4.48;71.98
69855;BME280;57146;48.140;16.304;2023-04-27T03:35:07;99668.38;;;4.53;71.62
69855;BME280;57146;48.140;16.304;2023-04-27T03:37:34;99665.28;;;4.56;71.58
69855;BME280;57146;48.140;16.304;2023-04-27T03:40:01;99665.00;;;4.52;71.83
69855;BME280;57146;48.140;16.304;2023-04-27T03:42:28;99674.41;;;4.59;70.98
69855;BME280;57146;48.140;16.304;2023-04-27T03:44:55;99672.84;;;4.57;70.62
69855;BME280;57146;48.140;16.304;2023-04-27T03:47:22;99676.22;;;4.58;71.11
69855;BME280;57146;48.140;16.304;2023-04-27T03:49:49;99671.28;;;4.56;71.40
69855;BME280;57146;48.140;16.304;2023-04-27T03:52:16;99670.72;;;4.54;72.53
69855;BME280;57146;48.140;16.304;2023-04-27T03:54:43;99679.88;;;4.52;73.14
69855;BME280;57146;48.140;16.304;2023-04-27T03:57:10;99675.91;;;4.49;73.31
69855;BME280;57146;48.140;16.304;2023-04-27T03:59:38;99680.66;;;4.52;73.34
69855;BME280;57146;48.140;16.304;2023-04-27T04:02:05;99685.31;;;4.50;73.41
69855;BME280;57146;48.140;16.304;2023-04-27T04:04:32;99675.13;;;4.49;73.86
69855;BME280;57146;48.140;16.304;2023-04-27T04:07:01;99678.28;;;4.51;73.45
69855;BME280;57146;48.140;16.304;2023-04-27T04:09:28;99680.88;;;4.51;72.91
69855;BME280;57146;48.140;16.304;2023-04-27T04:11:55;99684.25;;;4.51;73.31
69855;BME280;57146;48.140;16.304;2023-04-27T04:14:22;99687.41;;;4.53;74.38
69855;BME280;57146;48.140;16.304;2023-04-27T04:16:50;99684.56;;;4.55;74.39
69855;BME280;57146;48.140;16.304;2023-04-27T04:19:19;99677.00;;;4.59;73.41
69855;BME280;57146;48.140;16.304;2023-04-27T04:21:47;99683.31;;;4.63;73.28
69855;BME280;57146;48.140;16.304;2023-04-27T04:24:14;99690.63;;;4.66;73.76
69855;BME280;57146;48.140;16.304;2023-04-27T04:26:42;99687.78;;;4.67;73.83
69855;BME280;57146;48.140;16.304;2023-04-27T04:29:09;99692.25;;;4.72;72.68
69855;BME280;57146;48.140;16.304;2023-04-27T04:31:37;99688.34;;;4.74;72.52
69855;BME280;57146;48.140;16.304;2023-04-27T04:34:04;99693.09;;;4.83;72.49
69855;BME280;57146;48.140;16.304;2023-04-27T04:36:31;99701.50;;;4.90;72.14
69855;BME280;57146;48.140;16.304;2023-04-27T04:38:57;99696.34;;;5.00;71.74
69855;BME280;57146;48.140;16.304;2023-04-27T04:41:25;99705.03;;;5.16;71.45
69855;BME280;57146;48.140;16.304;2023-04-27T04:43:52;99697.53;;;5.29;70.87
69855;BME280;57146;48.140;16.304;2023-04-27T04:46:19;99708.03;;;5.40;70.28
69855;BME280;57146;48.140;16.304;2023-04-27T04:48:46;99700.50;;;5.48;70.15
69855;BME280;57146;48.140;16.304;2023-04-27T04:51:13;99703.69;;;5.61;70.09
69855;BME280;57146;48.140;16.304;2023-04-27T04:53:40;99703.19;;;5.69;68.96
69855;BME280;57146;48.140;16.304;2023-04-27T04:56:12;99699.81;;;5.73;68.34
69855;BME280;57146;48.140;16.304;2023-04-27T04:58:39;99697.47;;;5.77;67.76
69855;BME280;57146;48.140;16.304;2023-04-27T05:01:06;99703.75;;;5.86;67.48
69855;BME280;57146;48.140;16.304;2023-04-27T05:03:33;99700.41;;;5.91;67.60
69855;BME280;57146;48.140;16.304;2023-04-27T05:06:00;99710.03;;;5.90;68.25
69855;BME280;57146;48.140;16.304;2023-04-27T05:08:27;99706.41;;;5.91;68.33
69855;BME280;57146;48.140;16.304;2023-04-27T05:10:54;99703.53;;;5.93;68.12
69855;BME280;57146;48.140;16.304;2023-04-27T05:13:21;99710.59;;;5.97;68.50
69855;BME280;57146;48.140;16.304;2023-04-27T05:15:48;99710.38;;;5.99;67.68
69855;BME280;57146;48.140;16.304;2023-04-27T05:18:15;99712.47;;;6.02;66.41
69855;BME280;57146;48.140;16.304;2023-04-27T05:20:42;99712.22;;;6.09;66.05
69855;BME280;57146;48.140;16.304;2023-04-27T05:23:08;99710.66;;;6.13;66.15
69855;BME280;57146;48.140;16.304;2023-04-27T05:25:35;99716.94;;;6.17;66.38
69855;BME280;57146;48.140;16.304;2023-04-27T05:28:03;99712.75;;;6.16;65.84
69855;BME280;57146;48.140;16.304;2023-04-27T05:30:29;99714.81;;;6.19;66.14
69855;BME280;57146;48.140;16.304;2023-04-27T05:32:56;99711.19;;;6.20;65.15
69855;BME280;57146;48.140;16.304;2023-04-27T05:35:23;99714.59;;;6.20;64.90
69855;BME280;57146;48.140;16.304;2023-04-27T05:37:50;99719.03;;;6.25;65.39
69855;BME280;57146;48.140;16.304;2023-04-27T05:40:17;99719.56;;;6.27;66.10
69855;BME280;57146;48.140;16.304;2023-04-27T05:42:47;99713.31;;;6.33;66.78
69855;BME280;57146;48.140;16.304;2023-04-27T05:45:15;99716.69;;;6.39;65.52
69855;BME280;57146;48.140;16.304;2023-04-27T05:47:42;99724.81;;;6.47;64.81
69855;BME280;57146;48.140;16.304;2023-04-27T05:50:09;99726.38;;;6.59;62.12
69855;BME280;57146;48.140;16.304;2023-04-27T05:52:36;99730.31;;;6.66;61.25
69855;BME280;57146;48.140;16.304;2023-04-27T05:55:04;99736.56;;;6.76;60.35
69855;BME280;57146;48.140;16.304;2023-04-27T05:57:31;99734.22;;;6.79;59.60
69855;BME280;57146;48.140;16.304;2023-04-27T05:59:58;99737.34;;;6.81;60.28
69855;BME280;57146;48.140;16.304;2023-04-27T06:02:25;99738.91;;;6.82;60.05
69855;BME280;57146;48.140;16.304;2023-04-27T06:04:52;99738.91;;;6.82;60.20
69855;BME280;57146;48.140;16.304;2023-04-27T06:07:19;99737.63;;;6.85;60.37
69855;BME280;57146;48.140;16.304;2023-04-27T06:09:46;99740.50;;;6.88;60.95
69855;BME280;57146;48.140;16.304;2023-04-27T06:12:13;99744.16;;;6.92;61.07
69855;BME280;57146;48.140;16.304;2023-04-27T06:14:40;99737.84;;;6.93;59.85
69855;BME280;57146;48.140;16.304;2023-04-27T06:17:07;99742.59;;;7.02;59.90
69855;BME280;57146;48.140;16.304;2023-04-27T06:19:33;99748.31;;;7.04;59.71
69855;BME280;57146;48.140;16.304;2023-04-27T06:22:00;99749.63;;;7.11;58.42
69855;BME280;57146;48.140;16.304;2023-04-27T06:24:27;99741.75;;;7.16;58.08
69855;BME280;57146;48.140;16.304;2023-04-27T06:26:54;99751.72;;;7.19;58.06
69855;BME280;57146;48.140;16.304;2023-04-27T06:29:21;99751.69;;;7.25;57.86
69855;BME280;57146;48.140;16.304;2023-04-27T06:31:49;99751.41;;;7.31;58.80
69855;BME280;57146;48.140;16.304;2023-04-27T06:34:15;99758.75;;;7.34;58.55
69855;BME280;57146;48.140;16.304;2023-04-27T06:36:42;99758.19;;;7.42;59.35
69855;BME280;57146;48.140;16.304;2023-04-27T06:39:09;99756.06;;;7.50;58.66
69855;BME280;57146;48.140;16.304;2023-04-27T06:41:36;99753.22;;;7.51;58.10
69855;BME280;57146;48.140;16.304;2023-04-27T06:44:03;99758.69;;;7.55;58.51
69855;BME280;57146;48.140;16.304;2023-04-27T06:46:30;99748.47;;;7.58;57.49
69855;BME280;57146;48.140;16.304;2023-04-27T06:48:57;99763.38;;;7.63;57.44
69855;BME280;57146;48.140;16.304;2023-04-27T06:51:25;99755.53;;;7.63;55.21
69855;BME280;57146;48.140;16.304;2023-04-27T06:53:52;99762.56;;;7.67;55.22
69855;BME280;57146;48.140;16.304;2023-04-27T06:56:19;99754.94;;;7.71;54.54
69855;BME280;57146;48.140;16.304;2023-04-27T06:58:46;99762.81;;;7.76;55.44
69855;BME280;57146;48.140;16.304;2023-04-27T07:01:13;99765.94;;;7.83;55.99
69855;BME280;57146;48.140;16.304;2023-04-27T07:03:41;99754.91;;;7.86;54.65
69855;BME280;57146;48.140;16.304;2023-04-27T07:06:08;99751.47;;;7.91;53.72
69855;BME280;57146;48.140;16.304;2023-04-27T07:08:35;99749.63;;;7.91;50.15
69855;BME280;57146;48.140;16.304;2023-04-27T07:11:02;99750.13;;;7.99;50.82
69855;BME280;57146;48.140;16.304;2023-04-27T07:13:29;99741.13;;;8.10;52.27
69855;BME280;57146;48.140;16.304;2023-04-27T07:15:56;99744.78;;;8.19;51.16
69855;BME280;57146;48.140;16.304;2023-04-27T07:18:23;99744.19;;;8.27;51.23
69855;BME280;57146;48.140;16.304;2023-04-27T07:20:51;99742.31;;;8.33;52.22
69855;BME280;57146;48.140;16.304;2023-04-27T07:23:19;99738.91;;;8.37;51.52
69855;BME280;57146;48.140;16.304;2023-04-27T07:25:46;99748.56;;;8.42;52.16
69855;BME280;57146;48.140;16.304;2023-04-27T07:28:13;99737.03;;;8.43;50.00
69855;BME280;57146;48.140;16.304;2023-04-27T07:30:40;99734.91;;;8.45;49.56
69855;BME280;57146;48.140;16.304;2023-04-27T07:33:07;99735.69;;;8.46;48.63
69855;BME280;57146;48.140;16.304;2023-04-27T07:35:35;99742.75;;;8.50;49.21
69855;BME280;57146;48.140;16.304;2023-04-27T07:38:03;99745.63;;;8.54;48.39
69855;BME280;57146;48.140;16.304;2023-04-27T07:40:30;99739.31;;;8.55;48.71
69855;BME280;57146;48.140;16.304;2023-04-27T07:42:57;99745.03;;;8.62;49.82
69855;BME280;57146;48.140;16.304;2023-04-27T07:45:24;99742.63;;;8.66;49.40
69855;BME280;57146;48.140;16.304;2023-04-27T07:47:51;99744.16;;;8.72;50.11
69855;BME280;57146;48.140;16.304;2023-04-27T07:50:18;99745.19;;;8.76;49.49
69855;BME280;57146;48.140;16.304;2023-04-27T07:52:45;99743.81;;;8.78;48.68
69855;BME280;57146;48.140;16.304;2023-04-27T07:55:12;99745.41;;;8.79;49.51
69855;BME280;57146;48.140;16.304;2023-04-27T07:57:39;99752.97;;;8.86;48.82
69855;BME280;57146;48.140;16.304;2023-04-27T08:00:06;99749.00;;;8.88;49.36
69855;BME280;57146;48.140;16.304;2023-04-27T08:02:38;99755.25;;;8.93;49.44
69855;BME280;57146;48.140;16.304;2023-04-27T08:05:05;99757.31;;;8.96;49.37
69855;BME280;57146;48.140;16.304;2023-04-27T08:07:33;99751.28;;;9.00;49.08
69855;BME280;57146;48.140;16.304;2023-04-27T08:10:08;99749.38;;;9.06;48.61
69855;BME280;57146;48.140;16.304;2023-04-27T08:13:00;99750.66;;;9.08;48.35
69855;BME280;57146;48.140;16.304;2023-04-27T08:15:27;99753.50;;;9.12;49.05
69855;BME280;57146;48.140;16.304;2023-04-27T08:17:54;99753.44;;;9.17;48.21
69855;BME280;57146;48.140;16.304;2023-04-27T08:20:21;99749.72;;;9.23;44.30
69855;BME280;57146;48.140;16.304;2023-04-27T08:22:50;99755.75;;;9.24;45.51
69855;BME280;57146;48.140;16.304;2023-04-27T08:25:17;99755.44;;;9.30;46.13
69855;BME280;57146;48.140;16.304;2023-04-27T08:27:44;99758.06;;;9.30;45.26
69855;BME280;57146;48.140;16.304;2023-04-27T08:30:11;99758.56;;;9.32;46.63
69855;BME280;57146;48.140;16.304;2023-04-27T08:32:38;99754.31;;;9.37;47.71
69855;BME280;57146;48.140;16.304;2023-04-27T08:35:05;99749.22;;;9.45;46.26
69855;BME280;57146;48.140;16.304;2023-04-27T08:37:32;99750.22;;;9.49;44.80
69855;BME280;57146;48.140;16.304;2023-04-27T08:39:59;99759.63;;;9.55;46.36
69855;BME280;57146;48.140;16.304;2023-04-27T08:42:26;99752.25;;;9.57;45.35
69855;BME280;57146;48.140;16.304;2023-04-27T08:44:52;99747.91;;;9.67;45.57
69855;BME280;57146;48.140;16.304;2023-04-27T08:47:19;99748.69;;;9.67;46.19
69855;BME280;57146;48.140;16.304;2023-04-27T08:50:05;99759.09;;;9.77;45.33
69855;BME280;57146;48.140;16.304;2023-04-27T08:52:33;99757.41;;;9.87;45.33
69855;BME280;57146;48.140;16.304;2023-04-27T08:55:00;99764.66;;;9.95;46.04
69855;BME280;57146;48.140;16.304;2023-04-27T08:57:27;99766.44;;;9.99;45.19
69855;BME280;57146;48.140;16.304;2023-04-27T08:59:57;99762.69;;;10.05;44.49
69855;BME280;57146;48.140;16.304;2023-04-27T09:02:24;99754.44;;;10.12;43.96
69855;BME280;57146;48.140;16.304;2023-04-27T09:04:51;99753.88;;;10.15;44.11
69855;BME280;57146;48.140;16.304;2023-04-27T09:07:18;99754.66;;;10.16;44.71
69855;BME280;57146;48.140;16.304;2023-04-27T09:09:45;99755.09;;;10.23;45.14
69855;BME280;57146;48.140;16.304;2023-04-27T09:12:17;99753.47;;;10.27;44.98
69855;BME280;57146;48.140;16.304;2023-04-27T09:14:58;99748.63;;;10.34;46.11
69855;BME280;57146;48.140;16.304;2023-04-27T09:17:26;99754.31;;;10.41;44.85
69855;BME280;57146;48.140;16.304;2023-04-27T09:22:30;99748.63;;;10.53;43.94
69855;BME280;57146;48.140;16.304;2023-04-27T09:24:57;99753.03;;;10.58;44.06
69855;BME280;57146;48.140;16.304;2023-04-27T09:27:49;99753.13;;;10.66;44.75
69855;BME280;57146;48.140;16.304;2023-04-27T09:30:17;99750.25;;;10.68;44.34
69855;BME280;57146;48.140;16.304;2023-04-27T09:32:51;99750.25;;;10.68;43.69
69855;BME280;57146;48.140;16.304;2023-04-27T09:35:24;99733.56;;;10.72;44.93
69855;BME280;57146;48.140;16.304;2023-04-27T09:37:52;99739.25;;;10.79;45.21
69855;BME280;57146;48.140;16.304;2023-04-27T09:40:22;99742.06;;;10.83;43.83
69855;BME280;57146;48.140;16.304;2023-04-27T09:42:49;99733.28;;;10.88;45.07
69855;BME280;57146;48.140;16.304;2023-04-27T09:45:17;99740.03;;;10.94;43.30
69855;BME280;57146;48.140;16.304;2023-04-27T09:47:44;99734.69;;;10.99;44.53
69855;BME280;57146;48.140;16.304;2023-04-27T09:50:12;99741.22;;;11.01;43.46
69855;BME280;57146;48.140;16.304;2023-04-27T09:52:39;99731.97;;;11.04;43.93
69855;BME280;57146;48.140;16.304;2023-04-27T09:55:14;99735.28;;;11.10;43.92
69855;BME280;57146;48.140;16.304;2023-04-27T10:02:56;99717.34;;;11.25;45.05
69855;BME280;57146;48.140;16.304;2023-04-27T10:05:49;99709.72;;;11.38;43.76
69855;BME280;57146;48.140;16.304;2023-04-27T10:08:28;99711.59;;;11.37;41.78
69855;BME280;57146;48.140;16.304;2023-04-27T10:10:55;99715.00;;;11.38;42.26
69855;BME280;57146;48.140;16.304;2023-04-27T10:13:23;99706.81;;;11.39;43.47
69855;BME280;57146;48.140;16.304;2023-04-27T10:15:52;99707.78;;;11.43;43.22
69855;BME280;57146;48.140;16.304;2023-04-27T10:18:29;99714.03;;;11.47;42.76
69855;BME280;57146;48.140;16.304;2023-04-27T10:21:08;99701.03;;;11.51;43.23
69855;BME280;57146;48.140;16.304;2023-04-27T10:23:45;99693.81;;;11.57;43.36
69855;BME280;57146;48.140;16.304;2023-04-27T10:26:12;99694.00;;;11.60;41.47
69855;BME280;57146;48.140;16.304;2023-04-27T10:28:38;99692.31;;;11.64;43.05
69855;BME280;57146;48.140;16.304;2023-04-27T10:31:09;99696.63;;;11.74;41.58
69855;BME280;57146;48.140;16.304;2023-04-27T10:33:41;99695.13;;;11.82;42.94
69855;BME280;57146;48.140;16.304;2023-04-27T10:36:13;99690.53;;;11.87;41.24
69855;BME280;57146;48.140;16.304;2023-04-27T10:38:40;99689.94;;;11.90;40.43
69855;BME280;57146;48.140;16.304;2023-04-27T10:41:12;99694.94;;;11.92;40.67
69855;BME280;57146;48.140;16.304;2023-04-27T10:43:40;99690.63;;;11.96;40.42
69855;BME280;57146;48.140;16.304;2023-04-27T10:46:10;99686.22;;;11.91;40.23
69855;BME280;57146;48.140;16.304;2023-04-27T10:48:38;99687.31;;;11.90;42.84
69855;BME280;57146;48.140;16.304;2023-04-27T10:51:05;99680.16;;;11.91;42.05
69855;BME280;57146;48.140;16.304;2023-04-27T10:53:33;99678.63;;;11.90;41.02
69855;BME280;57146;48.140;16.304;2023-04-27T10:56:01;99679.28;;;11.95;42.33
69855;BME280;57146;48.140;16.304;2023-04-27T10:58:28;99672.16;;;11.96;40.54
69855;BME280;57146;48.140;16.304;2023-04-27T11:01:22;99677.72;;;11.94;40.79
69855;BME280;57146;48.140;16.304;2023-04-27T11:03:59;99674.97;;;12.00;40.81
69855;BME280;57146;48.140;16.304;2023-04-27T11:06:29;99674.03;;;11.95;41.70
69855;BME280;57146;48.140;16.304;2023-04-27T11:09:06;99677.81;;;12.03;41.11
69855;BME280;57146;48.140;16.304;2023-04-27T11:11:33;99677.63;;;12.00;39.91
69855;BME280;57146;48.140;16.304;2023-04-27T11:14:00;99669.22;;;11.97;41.36
69855;BME280;57146;48.140;16.304;2023-04-27T11:16:26;99671.94;;;12.06;41.80
69855;BME280;57146;48.140;16.304;2023-04-27T11:19:03;99671.31;;;12.09;40.69
69855;BME280;57146;48.140;16.304;2023-04-27T11:21:31;99669.16;;;12.11;41.60
69855;BME280;57146;48.140;16.304;2023-04-27T11:24:06;99668.56;;;12.14;40.17
69855;BME280;57146;48.140;16.304;2023-04-27T11:26:33;99665.78;;;12.19;41.51
69855;BME280;57146;48.140;16.304;2023-04-27T11:29:02;99673.88;;;12.23;41.42
69855;BME280;57146;48.140;16.304;2023-04-27T11:31:44;99670.00;;;12.20;39.14
69855;BME280;57146;48.140;16.304;2023-04-27T11:34:18;99662.50;;;12.14;38.76
69855;BME280;57146;48.140;16.304;2023-04-27T11:36:59;99662.03;;;12.12;40.89
69855;BME280;57146;48.140;16.304;2023-04-27T11:39:44;99659.91;;;12.22;41.56
69855;BME280;57146;48.140;16.304;2023-04-27T11:42:24;99667.25;;;12.26;40.87
69855;BME280;57146;48.140;16.304;2023-04-27T11:47:25;99664.34;;;12.36;39.83
69855;BME280;57146;48.140;16.304;2023-04-27T11:49:57;99656.03;;;12.42;39.45
69855;BME280;57146;48.140;16.304;2023-04-27T11:52:29;99653.84;;;12.44;39.06
69855;BME280;57146;48.140;16.304;2023-04-27T11:54:57;99649.50;;;12.49;39.01
69855;BME280;57146;48.140;16.304;2023-04-27T11:57:26;99653.56;;;12.46;37.94
69855;BME280;57146;48.140;16.304;2023-04-27T11:59:59;99647.59;;;12.40;37.71
69855;BME280;57146;48.140;16.304;2023-04-27T12:02:29;99642.81;;;12.42;39.14
69855;BME280;57146;48.140;16.304;2023-04-27T12:04:57;99648.44;;;12.50;38.63
69855;BME280;57146;48.140;16.304;2023-04-27T12:07:25;99641.75;;;12.52;39.57
69855;BME280;57146;48.140;16.304;2023-04-27T12:09:52;99645.22;;;12.53;39.07
69855;BME280;57146;48.140;16.304;2023-04-27T12:12:19;99645.84;;;12.58;39.04
69855;BME280;57146;48.140;16.304;2023-04-27T12:14:46;99651.59;;;12.60;39.31
69855;BME280;57146;48.140;16.304;2023-04-27T12:17:13;99640.56;;;12.58;38.72
69855;BME280;57146;48.140;16.304;2023-04-27T12:19:40;99635.28;;;12.58;38.74
69855;BME280;57146;48.140;16.304;2023-04-27T12:22:07;99643.03;;;12.55;38.67
69855;BME280;57146;48.140;16.304;2023-04-27T12:24:34;99642.84;;;12.51;38.48
69855;BME280;57146;48.140;16.304;2023-04-27T12:27:02;99643.94;;;12.50;39.15
69855;BME280;57146;48.140;16.304;2023-04-27T12:29:29;99630.59;;;12.55;39.52
69855;BME280;57146;48.140;16.304;2023-04-27T12:31:57;99630.16;;;12.62;39.36
69855;BME280;57146;48.140;16.304;2023-04-27T12:34:24;99632.19;;;12.65;39.38
69855;BME280;57146;48.140;16.304;2023-04-27T12:36:52;99622.72;;;12.64;37.77
69855;BME280;57146;48.140;16.304;2023-04-27T12:39:21;99631.00;;;12.71;39.34
69855;BME280;57146;48.140;16.304;2023-04-27T12:41:49;99622.75;;;12.73;39.01
69855;BME280;57146;48.140;16.304;2023-04-27T12:44:17;99624.78;;;12.76;39.34
69855;BME280;57146;48.140;16.304;2023-04-27T12:46:45;99623.53;;;12.73;38.54
69855;BME280;57146;48.140;16.304;2023-04-27T12:49:12;99623.53;;;12.73;38.93
69855;BME280;57146;48.140;16.304;2023-04-27T12:51:40;99621.22;;;12.80;37.83
69855;BME280;57146;48.140;16.304;2023-04-27T12:54:08;99622.38;;;12.88;38.06
69855;BME280;57146;48.140;16.304;2023-04-27T12:56:35;99625.50;;;12.99;38.22
69855;BME280;57146;48.140;16.304;2023-04-27T12:59:02;99620.56;;;13.06;37.78
69855;BME280;57146;48.140;16.304;2023-04-27T13:01:29;99620.84;;;13.04;38.34
69855;BME280;57146;48.140;16.304;2023-04-27T13:04:01;99616.03;;;13.06;38.48
69855;BME280;57146;48.140;16.304;2023-04-27T13:06:30;99610.47;;;13.16;39.61
69855;BME280;57146;48.140;16.304;2023-04-27T13:08:57;99608.19;;;13.24;39.48
69855;BME280;57146;48.140;16.304;2023-04-27T13:11:25;99612.06;;;13.26;39.18
69855;BME280;57146;48.140;16.304;2023-04-27T13:13:52;99614.69;;;13.26;38.61